sensor_id;sensor_type;location;lat;lon;timestamp;P1;durP1;ratioP1;P2;durP2;ratioP2
72755;SDS011;60881;55.002;73.232;2022-08-01T00:02:01;8.85;;;4.30;;
72755;SDS011;60881;55.002;73.232;2022-08-01T00:04:28;8.88;;;4.35;;
72755;SDS011;60881;55.002;73.232;2022-08-01T00:06:56;10.68;;;4.45;;
72755;SDS011;60881;55.002;73.232;2022-08-01T00:09:32;14.48;;;4.40;;
72755;SDS011;60881;55.002;73.232;2022-08-01T00:12:02;9.70;;;4.63;;
72755;SDS011;60881;55.002;73.232;2022-08-01T00:14:30;7.72;;;4.43;;
72755;SDS011;60881;55.002;73.232;2022-08-01T00:16:57;7.90;;;4.25;;
72755;SDS011;60881;55.002;73.232;2022-08-01T00:19:24;7.07;;;4.10;;
72755;SDS011;60881;55.002;73.232;2022-08-01T00:21:51;11.98;;;4.65;;
72755;SDS011;60881;55.002;73.232;2022-08-01T00:24:17;8.82;;;4.28;;
72755;SDS011;60881;55.002;73.232;2022-08-01T00:26:49;9.02;;;4.53;;
72755;SDS011;60881;55.002;73.232;2022-08-01T00:29:15;6.70;;;4.50;;
72755;SDS011;60881;55.002;73.232;2022-08-01T00:31:43;9.13;;;4.28;;
72755;SDS011;60881;55.002;73.232;2022-08-01T00:34:09;9.85;;;4.00;;
72755;SDS011;60881;55.002;73.232;2022-08-01T00:36:37;7.53;;;4.35;;
72755;SDS011;60881;55.002;73.232;2022-08-01T00:39:03;10.63;;;4.25;;
72755;SDS011;60881;55.002;73.232;2022-08-01T00:41:30;9.52;;;4.43;;
72755;SDS011;60881;55.002;73.232;2022-08-01T00:43:57;7.22;;;4.22;;
72755;SDS011;60881;55.002;73.232;2022-08-01T00:46:23;6.35;;;4.28;;
72755;SDS011;60881;55.002;73.232;2022-08-01T00:48:54;6.53;;;4.30;;
72755;SDS011;60881;55.002;73.232;2022-08-01T00:51:21;11.23;;;5.32;;
72755;SDS011;60881;55.002;73.232;2022-08-01T00:53:49;9.48;;;4.13;;
72755;SDS011;60881;55.002;73.232;2022-08-01T00:56:16;11.10;;;4.55;;
72755;SDS011;60881;55.002;73.232;2022-08-01T00:58:44;13.30;;;4.57;;
72755;SDS011;60881;55.002;73.232;2022-08-01T01:01:10;15.57;;;4.22;;
72755;SDS011;60881;55.002;73.232;2022-08-01T01:03:37;14.23;;;4.40;;
72755;SDS011;60881;55.002;73.232;2022-08-01T01:09:02;7.40;;;4.70;;
72755;SDS011;60881;55.002;73.232;2022-08-01T01:11:40;13.38;;;4.90;;
72755;SDS011;60881;55.002;73.232;2022-08-01T01:14:19;7.20;;;4.53;;
72755;SDS011;60881;55.002;73.232;2022-08-01T01:17:09;10.88;;;4.57;;
72755;SDS011;60881;55.002;73.232;2022-08-01T01:19:45;12.02;;;5.43;;
72755;SDS011;60881;55.002;73.232;2022-08-01T01:22:21;10.48;;;4.78;;
72755;SDS011;60881;55.002;73.232;2022-08-01T01:27:33;10.77;;;4.72;;
72755;SDS011;60881;55.002;73.232;2022-08-01T01:30:11;8.57;;;4.65;;
72755;SDS011;60881;55.002;73.232;2022-08-01T01:32:48;12.27;;;4.90;;
72755;SDS011;60881;55.002;73.232;2022-08-01T01:35:24;12.23;;;4.93;;
72755;SDS011;60881;55.002;73.232;2022-08-01T01:37:57;11.15;;;4.80;;
72755;SDS011;60881;55.002;73.232;2022-08-01T01:40:42;10.98;;;4.95;;
72755;SDS011;60881;55.002;73.232;2022-08-01T01:43:12;15.43;;;5.00;;
72755;SDS011;60881;55.002;73.232;2022-08-01T01:45:47;16.50;;;4.97;;
72755;SDS011;60881;55.002;73.232;2022-08-01T01:48:18;10.85;;;5.03;;
72755;SDS011;60881;55.002;73.232;2022-08-01T01:50:46;16.20;;;4.97;;
72755;SDS011;60881;55.002;73.232;2022-08-01T01:53:15;11.60;;;5.20;;
72755;SDS011;60881;55.002;73.232;2022-08-01T01:55:44;7.60;;;4.93;;
72755;SDS011;60881;55.002;73.232;2022-08-01T01:58:19;6.95;;;4.90;;
72755;SDS011;60881;55.002;73.232;2022-08-01T02:00:46;13.10;;;5.35;;
72755;SDS011;60881;55.002;73.232;2022-08-01T02:03:14;10.88;;;5.15;;
72755;SDS011;60881;55.002;73.232;2022-08-01T02:05:44;11.13;;;5.50;;
72755;SDS011;60881;55.002;73.232;2022-08-01T02:08:13;22.35;;;5.30;;
72755;SDS011;60881;55.002;73.232;2022-08-01T02:10:44;15.52;;;5.50;;
72755;SDS011;60881;55.002;73.232;2022-08-01T02:13:31;10.88;;;5.38;;
72755;SDS011;60881;55.002;73.232;2022-08-01T02:16:09;11.50;;;5.40;;
72755;SDS011;60881;55.002;73.232;2022-08-01T02:18:41;9.00;;;5.70;;
72755;SDS011;60881;55.002;73.232;2022-08-01T02:21:08;19.27;;;5.53;;
72755;SDS011;60881;55.002;73.232;2022-08-01T02:23:39;18.55;;;5.85;;
72755;SDS011;60881;55.002;73.232;2022-08-01T02:26:09;21.70;;;5.90;;
72755;SDS011;60881;55.002;73.232;2022-08-01T02:28:46;13.60;;;5.45;;
72755;SDS011;60881;55.002;73.232;2022-08-01T02:31:17;10.98;;;5.35;;
72755;SDS011;60881;55.002;73.232;2022-08-01T02:33:53;8.18;;;5.40;;
72755;SDS011;60881;55.002;73.232;2022-08-01T02:36:28;13.05;;;5.90;;
72755;SDS011;60881;55.002;73.232;2022-08-01T02:38:56;18.08;;;6.00;;
72755;SDS011;60881;55.002;73.232;2022-08-01T02:41:26;10.82;;;5.80;;
72755;SDS011;60881;55.002;73.232;2022-08-01T02:43:56;15.18;;;5.68;;
72755;SDS011;60881;55.002;73.232;2022-08-01T02:46:39;14.88;;;5.75;;
72755;SDS011;60881;55.002;73.232;2022-08-01T02:49:09;18.73;;;5.53;;
72755;SDS011;60881;55.002;73.232;2022-08-01T02:51:38;10.13;;;5.47;;
72755;SDS011;60881;55.002;73.232;2022-08-01T02:54:07;12.57;;;6.05;;
72755;SDS011;60881;55.002;73.232;2022-08-01T02:56:35;15.63;;;5.95;;
72755;SDS011;60881;55.002;73.232;2022-08-01T02:59:05;11.25;;;5.40;;
72755;SDS011;60881;55.002;73.232;2022-08-01T03:01:34;14.05;;;6.20;;
72755;SDS011;60881;55.002;73.232;2022-08-01T03:04:02;15.00;;;6.00;;
72755;SDS011;60881;55.002;73.232;2022-08-01T03:06:32;14.57;;;5.75;;
72755;SDS011;60881;55.002;73.232;2022-08-01T03:09:03;11.30;;;6.25;;
72755;SDS011;60881;55.002;73.232;2022-08-01T03:11:34;11.45;;;5.82;;
72755;SDS011;60881;55.002;73.232;2022-08-01T03:14:04;13.48;;;6.40;;
72755;SDS011;60881;55.002;73.232;2022-08-01T03:16:36;9.95;;;6.18;;
72755;SDS011;60881;55.002;73.232;2022-08-01T03:19:08;17.90;;;8.35;;
72755;SDS011;60881;55.002;73.232;2022-08-01T03:21:38;16.08;;;6.50;;
72755;SDS011;60881;55.002;73.232;2022-08-01T03:24:06;12.65;;;6.35;;
72755;SDS011;60881;55.002;73.232;2022-08-01T03:26:34;12.93;;;6.53;;
72755;SDS011;60881;55.002;73.232;2022-08-01T03:29:04;15.75;;;6.45;;
72755;SDS011;60881;55.002;73.232;2022-08-01T03:31:36;17.27;;;6.60;;
72755;SDS011;60881;55.002;73.232;2022-08-01T03:34:04;13.32;;;6.72;;
72755;SDS011;60881;55.002;73.232;2022-08-01T03:36:32;14.75;;;6.47;;
72755;SDS011;60881;55.002;73.232;2022-08-01T03:39:03;12.45;;;6.38;;
72755;SDS011;60881;55.002;73.232;2022-08-01T03:41:37;16.65;;;7.68;;
72755;SDS011;60881;55.002;73.232;2022-08-01T03:44:07;11.00;;;6.50;;
72755;SDS011;60881;55.002;73.232;2022-08-01T03:46:40;15.88;;;6.97;;
72755;SDS011;60881;55.002;73.232;2022-08-01T03:49:22;17.35;;;6.65;;
72755;SDS011;60881;55.002;73.232;2022-08-01T03:52:02;19.70;;;6.50;;
72755;SDS011;60881;55.002;73.232;2022-08-01T03:54:31;11.82;;;6.68;;
72755;SDS011;60881;55.002;73.232;2022-08-01T03:57:00;16.23;;;6.68;;
72755;SDS011;60881;55.002;73.232;2022-08-01T03:59:28;14.23;;;7.00;;
72755;SDS011;60881;55.002;73.232;2022-08-01T04:01:56;11.00;;;6.82;;
72755;SDS011;60881;55.002;73.232;2022-08-01T04:04:23;14.18;;;6.93;;
72755;SDS011;60881;55.002;73.232;2022-08-01T04:06:50;12.38;;;6.70;;
72755;SDS011;60881;55.002;73.232;2022-08-01T04:09:20;19.05;;;6.65;;
72755;SDS011;60881;55.002;73.232;2022-08-01T04:11:48;14.80;;;6.97;;
72755;SDS011;60881;55.002;73.232;2022-08-01T04:14:15;16.58;;;7.55;;
72755;SDS011;60881;55.002;73.232;2022-08-01T04:16:41;10.90;;;6.90;;
72755;SDS011;60881;55.002;73.232;2022-08-01T04:19:17;17.35;;;7.65;;
72755;SDS011;60881;55.002;73.232;2022-08-01T04:21:44;10.68;;;6.93;;
72755;SDS011;60881;55.002;73.232;2022-08-01T04:24:12;12.57;;;7.28;;
72755;SDS011;60881;55.002;73.232;2022-08-01T04:29:13;24.95;;;9.70;;
72755;SDS011;60881;55.002;73.232;2022-08-01T04:31:43;12.43;;;7.80;;
72755;SDS011;60881;55.002;73.232;2022-08-01T04:34:12;15.88;;;8.00;;
72755;SDS011;60881;55.002;73.232;2022-08-01T04:36:45;15.63;;;8.43;;
72755;SDS011;60881;55.002;73.232;2022-08-01T04:39:14;14.27;;;8.23;;
72755;SDS011;60881;55.002;73.232;2022-08-01T04:41:43;21.17;;;8.50;;
72755;SDS011;60881;55.002;73.232;2022-08-01T04:44:22;17.90;;;8.90;;
72755;SDS011;60881;55.002;73.232;2022-08-01T04:46:50;16.52;;;9.20;;
72755;SDS011;60881;55.002;73.232;2022-08-01T04:49:20;14.35;;;9.18;;
72755;SDS011;60881;55.002;73.232;2022-08-01T04:51:54;13.68;;;9.25;;
72755;SDS011;60881;55.002;73.232;2022-08-01T04:54:26;13.85;;;9.15;;
72755;SDS011;60881;55.002;73.232;2022-08-01T04:56:53;13.80;;;9.30;;
72755;SDS011;60881;55.002;73.232;2022-08-01T04:59:26;16.25;;;9.20;;
72755;SDS011;60881;55.002;73.232;2022-08-01T05:02:10;13.52;;;8.70;;
72755;SDS011;60881;55.002;73.232;2022-08-01T05:04:39;17.73;;;9.50;;
72755;SDS011;60881;55.002;73.232;2022-08-01T05:07:06;15.05;;;10.10;;
72755;SDS011;60881;55.002;73.232;2022-08-01T05:09:34;13.90;;;9.43;;
72755;SDS011;60881;55.002;73.232;2022-08-01T05:12:02;20.17;;;9.73;;
72755;SDS011;60881;55.002;73.232;2022-08-01T05:14:31;15.90;;;9.50;;
72755;SDS011;60881;55.002;73.232;2022-08-01T05:16:59;18.60;;;9.40;;
72755;SDS011;60881;55.002;73.232;2022-08-01T05:19:39;18.80;;;9.30;;
72755;SDS011;60881;55.002;73.232;2022-08-01T05:22:10;16.10;;;9.30;;
72755;SDS011;60881;55.002;73.232;2022-08-01T05:24:37;20.83;;;9.18;;
72755;SDS011;60881;55.002;73.232;2022-08-01T05:27:14;18.20;;;9.70;;
72755;SDS011;60881;55.002;73.232;2022-08-01T05:29:40;13.88;;;8.93;;
72755;SDS011;60881;55.002;73.232;2022-08-01T05:32:08;20.98;;;9.50;;
72755;SDS011;60881;55.002;73.232;2022-08-01T05:34:35;21.15;;;9.30;;
72755;SDS011;60881;55.002;73.232;2022-08-01T05:37:03;17.35;;;8.25;;
72755;SDS011;60881;55.002;73.232;2022-08-01T05:39:30;14.57;;;7.47;;
72755;SDS011;60881;55.002;73.232;2022-08-01T05:41:58;15.55;;;8.15;;
72755;SDS011;60881;55.002;73.232;2022-08-01T05:44:25;18.90;;;7.32;;
72755;SDS011;60881;55.002;73.232;2022-08-01T05:46:51;18.10;;;6.90;;
72755;SDS011;60881;55.002;73.232;2022-08-01T05:49:18;11.60;;;7.20;;
72755;SDS011;60881;55.002;73.232;2022-08-01T05:51:45;13.43;;;7.00;;
72755;SDS011;60881;55.002;73.232;2022-08-01T05:54:11;13.75;;;7.30;;
72755;SDS011;60881;55.002;73.232;2022-08-01T05:56:38;22.08;;;8.30;;
72755;SDS011;60881;55.002;73.232;2022-08-01T05:59:07;11.90;;;7.30;;
72755;SDS011;60881;55.002;73.232;2022-08-01T06:01:43;12.43;;;6.68;;
72755;SDS011;60881;55.002;73.232;2022-08-01T06:04:09;13.57;;;7.03;;
72755;SDS011;60881;55.002;73.232;2022-08-01T06:06:35;12.00;;;6.90;;
72755;SDS011;60881;55.002;73.232;2022-08-01T06:09:03;16.52;;;7.25;;
72755;SDS011;60881;55.002;73.232;2022-08-01T06:11:30;13.90;;;7.72;;
72755;SDS011;60881;55.002;73.232;2022-08-01T06:13:56;25.25;;;7.72;;
72755;SDS011;60881;55.002;73.232;2022-08-01T06:16:23;17.40;;;8.20;;
72755;SDS011;60881;55.002;73.232;2022-08-01T06:18:49;13.43;;;7.20;;
72755;SDS011;60881;55.002;73.232;2022-08-01T06:21:17;16.60;;;6.88;;
72755;SDS011;60881;55.002;73.232;2022-08-01T06:23:44;15.00;;;7.25;;
72755;SDS011;60881;55.002;73.232;2022-08-01T06:26:10;18.15;;;8.45;;
72755;SDS011;60881;55.002;73.232;2022-08-01T06:28:38;16.23;;;7.45;;
72755;SDS011;60881;55.002;73.232;2022-08-01T06:31:05;15.95;;;7.78;;
72755;SDS011;60881;55.002;73.232;2022-08-01T06:33:33;19.20;;;7.88;;
72755;SDS011;60881;55.002;73.232;2022-08-01T06:35:59;17.40;;;8.10;;
72755;SDS011;60881;55.002;73.232;2022-08-01T06:38:26;14.57;;;7.22;;
72755;SDS011;60881;55.002;73.232;2022-08-01T06:40:53;13.60;;;7.00;;
72755;SDS011;60881;55.002;73.232;2022-08-01T06:43:20;20.33;;;8.13;;
72755;SDS011;60881;55.002;73.232;2022-08-01T06:45:47;16.58;;;8.15;;
72755;SDS011;60881;55.002;73.232;2022-08-01T06:48:14;13.90;;;8.82;;
72755;SDS011;60881;55.002;73.232;2022-08-01T06:50:41;14.55;;;8.18;;
72755;SDS011;60881;55.002;73.232;2022-08-01T06:53:08;13.15;;;8.13;;
72755;SDS011;60881;55.002;73.232;2022-08-01T06:55:35;17.05;;;8.10;;
72755;SDS011;60881;55.002;73.232;2022-08-01T06:58:02;19.77;;;7.65;;
72755;SDS011;60881;55.002;73.232;2022-08-01T07:00:34;15.80;;;7.95;;
72755;SDS011;60881;55.002;73.232;2022-08-01T07:03:01;14.82;;;7.90;;
72755;SDS011;60881;55.002;73.232;2022-08-01T07:05:29;14.77;;;7.90;;
72755;SDS011;60881;55.002;73.232;2022-08-01T07:07:56;18.58;;;7.20;;
72755;SDS011;60881;55.002;73.232;2022-08-01T07:10:24;13.95;;;7.75;;
72755;SDS011;60881;55.002;73.232;2022-08-01T07:12:50;13.88;;;7.22;;
72755;SDS011;60881;55.002;73.232;2022-08-01T07:15:17;17.17;;;7.65;;
72755;SDS011;60881;55.002;73.232;2022-08-01T07:17:46;13.15;;;6.40;;
72755;SDS011;60881;55.002;73.232;2022-08-01T07:20:12;17.92;;;7.00;;
72755;SDS011;60881;55.002;73.232;2022-08-01T07:22:39;12.75;;;6.75;;
72755;SDS011;60881;55.002;73.232;2022-08-01T07:25:05;12.30;;;6.75;;
72755;SDS011;60881;55.002;73.232;2022-08-01T07:27:33;16.50;;;7.00;;
72755;SDS011;60881;55.002;73.232;2022-08-01T07:30:01;18.83;;;6.55;;
72755;SDS011;60881;55.002;73.232;2022-08-01T07:32:28;13.00;;;6.55;;
72755;SDS011;60881;55.002;73.232;2022-08-01T07:34:55;23.25;;;8.60;;
72755;SDS011;60881;55.002;73.232;2022-08-01T07:37:23;15.98;;;7.47;;
72755;SDS011;60881;55.002;73.232;2022-08-01T07:39:50;23.17;;;7.57;;
72755;SDS011;60881;55.002;73.232;2022-08-01T07:42:17;19.33;;;7.07;;
72755;SDS011;60881;55.002;73.232;2022-08-01T07:44:43;18.60;;;7.20;;
72755;SDS011;60881;55.002;73.232;2022-08-01T07:47:11;13.20;;;7.05;;
72755;SDS011;60881;55.002;73.232;2022-08-01T07:49:38;22.00;;;7.97;;
72755;SDS011;60881;55.002;73.232;2022-08-01T07:52:05;19.35;;;7.05;;
72755;SDS011;60881;55.002;73.232;2022-08-01T07:54:31;25.60;;;7.18;;
72755;SDS011;60881;55.002;73.232;2022-08-01T07:56:58;12.43;;;7.18;;
72755;SDS011;60881;55.002;73.232;2022-08-01T07:59:25;19.02;;;7.75;;
72755;SDS011;60881;55.002;73.232;2022-08-01T08:01:59;12.60;;;6.57;;
72755;SDS011;60881;55.002;73.232;2022-08-01T08:04:26;22.77;;;6.82;;
72755;SDS011;60881;55.002;73.232;2022-08-01T08:06:53;13.18;;;6.43;;
72755;SDS011;60881;55.002;73.232;2022-08-01T08:09:23;13.90;;;5.90;;
72755;SDS011;60881;55.002;73.232;2022-08-01T08:11:50;12.18;;;6.35;;
72755;SDS011;60881;55.002;73.232;2022-08-01T08:14:27;23.30;;;6.22;;
72755;SDS011;60881;55.002;73.232;2022-08-01T08:16:54;19.63;;;5.95;;
72755;SDS011;60881;55.002;73.232;2022-08-01T08:19:21;23.73;;;6.50;;
72755;SDS011;60881;55.002;73.232;2022-08-01T08:21:48;17.27;;;6.43;;
72755;SDS011;60881;55.002;73.232;2022-08-01T08:24:15;16.10;;;5.18;;
72755;SDS011;60881;55.002;73.232;2022-08-01T08:26:49;17.10;;;5.50;;
72755;SDS011;60881;55.002;73.232;2022-08-01T08:29:20;15.55;;;5.18;;
72755;SDS011;60881;55.002;73.232;2022-08-01T08:31:47;17.65;;;5.13;;
72755;SDS011;60881;55.002;73.232;2022-08-01T08:34:15;16.52;;;5.95;;
72755;SDS011;60881;55.002;73.232;2022-08-01T08:36:42;19.33;;;5.72;;
72755;SDS011;60881;55.002;73.232;2022-08-01T08:39:13;14.30;;;2.80;;
72755;SDS011;60881;55.002;73.232;2022-08-01T08:41:40;13.18;;;2.53;;
72755;SDS011;60881;55.002;73.232;2022-08-01T08:44:08;22.02;;;2.47;;
72755;SDS011;60881;55.002;73.232;2022-08-01T08:46:42;15.88;;;2.28;;
72755;SDS011;60881;55.002;73.232;2022-08-01T08:49:28;10.65;;;2.10;;
72755;SDS011;60881;55.002;73.232;2022-08-01T08:51:57;8.40;;;1.95;;
72755;SDS011;60881;55.002;73.232;2022-08-01T08:54:25;9.95;;;2.00;;
72755;SDS011;60881;55.002;73.232;2022-08-01T08:56:53;9.10;;;1.90;;
72755;SDS011;60881;55.002;73.232;2022-08-01T08:59:22;9.75;;;2.13;;
72755;SDS011;60881;55.002;73.232;2022-08-01T09:01:52;9.70;;;2.35;;
72755;SDS011;60881;55.002;73.232;2022-08-01T09:04:18;18.17;;;2.20;;
72755;SDS011;60881;55.002;73.232;2022-08-01T09:06:48;7.07;;;2.40;;
72755;SDS011;60881;55.002;73.232;2022-08-01T09:09:15;18.27;;;2.35;;
72755;SDS011;60881;55.002;73.232;2022-08-01T09:11:41;3.35;;;1.88;;
72755;SDS011;60881;55.002;73.232;2022-08-01T09:14:18;19.50;;;1.90;;
72755;SDS011;60881;55.002;73.232;2022-08-01T09:19:47;5.85;;;1.92;;
72755;SDS011;60881;55.002;73.232;2022-08-01T09:22:18;8.57;;;2.03;;
72755;SDS011;60881;55.002;73.232;2022-08-01T09:25:02;10.75;;;1.70;;
72755;SDS011;60881;55.002;73.232;2022-08-01T09:27:32;11.15;;;2.30;;
72755;SDS011;60881;55.002;73.232;2022-08-01T09:30:15;5.68;;;1.88;;
72755;SDS011;60881;55.002;73.232;2022-08-01T09:32:59;7.57;;;1.95;;
72755;SDS011;60881;55.002;73.232;2022-08-01T09:35:32;10.38;;;2.15;;
72755;SDS011;60881;55.002;73.232;2022-08-01T09:38:15;7.30;;;1.92;;
72755;SDS011;60881;55.002;73.232;2022-08-01T09:43:30;5.55;;;1.80;;
72755;SDS011;60881;55.002;73.232;2022-08-01T09:45:56;9.63;;;3.22;;
72755;SDS011;60881;55.002;73.232;2022-08-01T09:48:35;11.32;;;2.03;;
72755;SDS011;60881;55.002;73.232;2022-08-01T09:51:13;10.30;;;2.10;;
72755;SDS011;60881;55.002;73.232;2022-08-01T09:54:06;3.90;;;1.40;;
72755;SDS011;60881;55.002;73.232;2022-08-01T09:56:37;4.25;;;1.80;;
72755;SDS011;60881;55.002;73.232;2022-08-01T09:59:14;5.80;;;1.80;;
72755;SDS011;60881;55.002;73.232;2022-08-01T10:01:45;7.80;;;1.80;;
72755;SDS011;60881;55.002;73.232;2022-08-01T10:04:20;9.93;;;1.98;;
72755;SDS011;60881;55.002;73.232;2022-08-01T10:06:51;9.60;;;3.92;;
72755;SDS011;60881;55.002;73.232;2022-08-01T10:09:27;4.55;;;1.63;;
72755;SDS011;60881;55.002;73.232;2022-08-01T10:11:57;9.45;;;1.60;;
72755;SDS011;60881;55.002;73.232;2022-08-01T10:14:25;7.50;;;2.30;;
72755;SDS011;60881;55.002;73.232;2022-08-01T10:16:53;5.88;;;2.10;;
72755;SDS011;60881;55.002;73.232;2022-08-01T10:19:23;23.15;;;2.20;;
72755;SDS011;60881;55.002;73.232;2022-08-01T10:21:53;6.53;;;1.98;;
72755;SDS011;60881;55.002;73.232;2022-08-01T10:24:21;7.28;;;1.60;;
72755;SDS011;60881;55.002;73.232;2022-08-01T10:27:01;4.50;;;1.55;;
72755;SDS011;60881;55.002;73.232;2022-08-01T10:29:31;12.02;;;1.67;;
72755;SDS011;60881;55.002;73.232;2022-08-01T10:32:13;13.30;;;1.70;;
72755;SDS011;60881;55.002;73.232;2022-08-01T10:34:39;2.13;;;1.20;;
72755;SDS011;60881;55.002;73.232;2022-08-01T10:37:06;8.20;;;1.70;;
72755;SDS011;60881;55.002;73.232;2022-08-01T10:39:43;9.50;;;1.80;;
72755;SDS011;60881;55.002;73.232;2022-08-01T10:42:10;4.82;;;1.60;;
72755;SDS011;60881;55.002;73.232;2022-08-01T10:44:38;9.65;;;1.83;;
72755;SDS011;60881;55.002;73.232;2022-08-01T10:47:10;12.35;;;1.88;;
72755;SDS011;60881;55.002;73.232;2022-08-01T10:49:51;19.02;;;1.85;;
72755;SDS011;60881;55.002;73.232;2022-08-01T10:52:26;11.52;;;1.95;;
72755;SDS011;60881;55.002;73.232;2022-08-01T10:55:26;6.65;;;1.95;;
72755;SDS011;60881;55.002;73.232;2022-08-01T10:57:47;11.10;;;1.40;;
72755;SDS011;60881;55.002;73.232;2022-08-01T11:00:21;11.82;;;1.83;;
72755;SDS011;60881;55.002;73.232;2022-08-01T11:03:01;12.27;;;1.70;;
72755;SDS011;60881;55.002;73.232;2022-08-01T11:05:33;7.05;;;1.48;;
72755;SDS011;60881;55.002;73.232;2022-08-01T11:08:02;7.93;;;1.88;;
72755;SDS011;60881;55.002;73.232;2022-08-01T11:10:42;10.32;;;1.80;;
72755;SDS011;60881;55.002;73.232;2022-08-01T11:13:09;6.88;;;1.73;;
72755;SDS011;60881;55.002;73.232;2022-08-01T11:15:48;6.45;;;1.65;;
72755;SDS011;60881;55.002;73.232;2022-08-01T11:21:00;8.05;;;1.40;;
72755;SDS011;60881;55.002;73.232;2022-08-01T11:23:28;11.50;;;1.48;;
72755;SDS011;60881;55.002;73.232;2022-08-01T11:28:30;8.02;;;1.08;;
72755;SDS011;60881;55.002;73.232;2022-08-01T11:38:41;12.30;;;1.25;;
72755;SDS011;60881;55.002;73.232;2022-08-01T11:51:53;19.17;;;1.20;;
72755;SDS011;60881;55.002;73.232;2022-08-01T11:54:40;8.52;;;1.00;;
72755;SDS011;60881;55.002;73.232;2022-08-01T11:57:17;7.47;;;0.90;;
72755;SDS011;60881;55.002;73.232;2022-08-01T11:59:48;15.80;;;1.40;;
72755;SDS011;60881;55.002;73.232;2022-08-01T12:02:17;5.30;;;0.93;;
72755;SDS011;60881;55.002;73.232;2022-08-01T12:05:00;4.23;;;1.00;;
72755;SDS011;60881;55.002;73.232;2022-08-01T12:07:31;14.70;;;1.10;;
72755;SDS011;60881;55.002;73.232;2022-08-01T12:12:45;6.00;;;0.85;;
72755;SDS011;60881;55.002;73.232;2022-08-01T12:15:21;9.73;;;1.05;;
72755;SDS011;60881;55.002;73.232;2022-08-01T12:18:00;3.15;;;1.10;;
72755;SDS011;60881;55.002;73.232;2022-08-01T12:20:31;13.23;;;1.20;;
72755;SDS011;60881;55.002;73.232;2022-08-01T12:23:02;11.20;;;1.05;;
72755;SDS011;60881;55.002;73.232;2022-08-01T12:25:33;2.65;;;0.70;;
72755;SDS011;60881;55.002;73.232;2022-08-01T12:28:02;7.57;;;0.82;;
72755;SDS011;60881;55.002;73.232;2022-08-01T12:30:31;10.52;;;0.95;;
72755;SDS011;60881;55.002;73.232;2022-08-01T12:33:01;5.70;;;0.80;;
72755;SDS011;60881;55.002;73.232;2022-08-01T12:35:33;8.60;;;1.10;;
72755;SDS011;60881;55.002;73.232;2022-08-01T12:38:05;3.88;;;0.63;;
72755;SDS011;60881;55.002;73.232;2022-08-01T12:40:37;5.07;;;0.63;;
72755;SDS011;60881;55.002;73.232;2022-08-01T12:43:07;7.45;;;0.80;;
72755;SDS011;60881;55.002;73.232;2022-08-01T12:45:39;6.38;;;0.70;;
72755;SDS011;60881;55.002;73.232;2022-08-01T12:48:09;3.55;;;0.68;;
72755;SDS011;60881;55.002;73.232;2022-08-01T12:50:41;7.18;;;0.75;;
72755;SDS011;60881;55.002;73.232;2022-08-01T12:53:10;7.50;;;0.90;;
72755;SDS011;60881;55.002;73.232;2022-08-01T12:55:47;8.20;;;0.90;;
72755;SDS011;60881;55.002;73.232;2022-08-01T12:58:21;8.77;;;1.00;;
72755;SDS011;60881;55.002;73.232;2022-08-01T13:00:48;3.50;;;0.70;;
72755;SDS011;60881;55.002;73.232;2022-08-01T13:03:17;4.53;;;0.82;;
72755;SDS011;60881;55.002;73.232;2022-08-01T13:05:46;8.48;;;0.98;;
72755;SDS011;60881;55.002;73.232;2022-08-01T13:08:20;4.63;;;0.88;;
72755;SDS011;60881;55.002;73.232;2022-08-01T13:10:49;3.90;;;0.80;;
72755;SDS011;60881;55.002;73.232;2022-08-01T13:13:17;9.63;;;1.00;;
72755;SDS011;60881;55.002;73.232;2022-08-01T13:15:46;7.63;;;1.10;;
72755;SDS011;60881;55.002;73.232;2022-08-01T13:18:27;6.35;;;1.20;;
72755;SDS011;60881;55.002;73.232;2022-08-01T13:21:12;8.23;;;1.27;;
72755;SDS011;60881;55.002;73.232;2022-08-01T13:24:09;8.15;;;1.00;;
72755;SDS011;60881;55.002;73.232;2022-08-01T13:29:15;5.68;;;0.85;;
72755;SDS011;60881;55.002;73.232;2022-08-01T13:31:43;6.63;;;1.02;;
72755;SDS011;60881;55.002;73.232;2022-08-01T13:34:12;8.88;;;1.10;;
72755;SDS011;60881;55.002;73.232;2022-08-01T13:36:39;4.53;;;1.00;;
72755;SDS011;60881;55.002;73.232;2022-08-01T13:39:16;7.68;;;1.42;;
72755;SDS011;60881;55.002;73.232;2022-08-01T13:42:01;6.93;;;1.38;;
72755;SDS011;60881;55.002;73.232;2022-08-01T13:44:30;7.28;;;1.80;;
72755;SDS011;60881;55.002;73.232;2022-08-01T13:46:57;17.92;;;2.45;;
72755;SDS011;60881;55.002;73.232;2022-08-01T13:49:34;13.18;;;2.33;;
72755;SDS011;60881;55.002;73.232;2022-08-01T13:52:01;7.55;;;2.55;;
72755;SDS011;60881;55.002;73.232;2022-08-01T13:54:28;13.52;;;2.60;;
72755;SDS011;60881;55.002;73.232;2022-08-01T13:56:55;6.78;;;2.20;;
72755;SDS011;60881;55.002;73.232;2022-08-01T13:59:31;10.18;;;1.83;;
72755;SDS011;60881;55.002;73.232;2022-08-01T14:01:58;7.80;;;1.48;;
72755;SDS011;60881;55.002;73.232;2022-08-01T14:04:25;7.22;;;1.50;;
72755;SDS011;60881;55.002;73.232;2022-08-01T14:06:51;8.27;;;1.65;;
72755;SDS011;60881;55.002;73.232;2022-08-01T14:09:19;11.50;;;1.50;;
72755;SDS011;60881;55.002;73.232;2022-08-01T14:11:48;6.40;;;1.70;;
72755;SDS011;60881;55.002;73.232;2022-08-01T14:14:16;6.72;;;1.52;;
72755;SDS011;60881;55.002;73.232;2022-08-01T14:16:42;11.30;;;1.75;;
72755;SDS011;60881;55.002;73.232;2022-08-01T14:19:11;10.88;;;2.55;;
72755;SDS011;60881;55.002;73.232;2022-08-01T14:21:38;13.45;;;1.60;;
72755;SDS011;60881;55.002;73.232;2022-08-01T14:24:05;5.72;;;1.48;;
72755;SDS011;60881;55.002;73.232;2022-08-01T14:26:33;13.55;;;2.67;;
72755;SDS011;60881;55.002;73.232;2022-08-01T14:28:59;7.53;;;1.80;;
72755;SDS011;60881;55.002;73.232;2022-08-01T14:31:26;11.68;;;1.80;;
72755;SDS011;60881;55.002;73.232;2022-08-01T14:33:55;13.85;;;1.75;;
72755;SDS011;60881;55.002;73.232;2022-08-01T14:36:22;7.85;;;3.83;;
72755;SDS011;60881;55.002;73.232;2022-08-01T14:38:49;8.77;;;2.65;;
72755;SDS011;60881;55.002;73.232;2022-08-01T14:44:20;19.75;;;2.58;;
72755;SDS011;60881;55.002;73.232;2022-08-01T14:46:48;7.65;;;2.08;;
72755;SDS011;60881;55.002;73.232;2022-08-01T14:49:15;18.25;;;3.42;;
72755;SDS011;60881;55.002;73.232;2022-08-01T14:54:44;21.13;;;4.85;;
72755;SDS011;60881;55.002;73.232;2022-08-01T14:57:12;19.52;;;4.50;;
72755;SDS011;60881;55.002;73.232;2022-08-01T14:59:54;24.63;;;7.60;;
72755;SDS011;60881;55.002;73.232;2022-08-01T15:08:25;11.48;;;1.90;;
72755;SDS011;60881;55.002;73.232;2022-08-01T15:10:53;13.88;;;2.25;;
72755;SDS011;60881;55.002;73.232;2022-08-01T15:13:19;8.75;;;2.05;;
72755;SDS011;60881;55.002;73.232;2022-08-01T15:15:46;6.75;;;1.80;;
72755;SDS011;60881;55.002;73.232;2022-08-01T15:18:13;13.25;;;1.70;;
72755;SDS011;60881;55.002;73.232;2022-08-01T15:26:45;7.70;;;1.20;;
72755;SDS011;60881;55.002;73.232;2022-08-01T15:29:22;8.73;;;1.40;;
72755;SDS011;60881;55.002;73.232;2022-08-01T15:31:54;17.02;;;2.10;;
72755;SDS011;60881;55.002;73.232;2022-08-01T15:34:21;17.00;;;2.55;;
72755;SDS011;60881;55.002;73.232;2022-08-01T15:36:48;30.85;;;3.13;;
72755;SDS011;60881;55.002;73.232;2022-08-01T15:39:15;28.10;;;2.95;;
72755;SDS011;60881;55.002;73.232;2022-08-01T15:50:51;35.78;;;3.38;;
72755;SDS011;60881;55.002;73.232;2022-08-01T15:53:22;22.13;;;3.35;;
72755;SDS011;60881;55.002;73.232;2022-08-01T15:55:58;24.73;;;4.97;;